Tokiwa, Japan

10:59 PM JST on 四月 28, 2017 (GMT +0900)
Ost-Contrescarpe | | Change Station

高度 104 ft 43.04 °N, 141.33 °E | Updated 2 minutes ago

雨
45.5 °F
体感気温 44 °F
3.7
風 変数 風 から 西北西
Gusts 8.1 Mph

今日
高い -- | 低 -- °F
--% 降水確率
昨日
高い -- | 低 -- °F
Precip. -- インチ
気圧 29.65 インチ
視程 6.2 マイル
わずか 1000 ft
やや曇 3000 ft
だいたい曇 5000 ft
体感気温(寒さ) 44 °F
露点温度 40 °F
湿度 82%
降水 0.20 インチ
積雪深 利用不可。
4:34 AM 6:33 PM
三日月, 6% visible
METAR RJCC 281330Z 19018KT 9999 -SHRA FEW010 SCT030 BKN050 08/06 Q1004 RMK 1ST010 4CU030 5CU050 A2966
気圧 29.65 インチ
視程 6.2 マイル
わずか 1000 ft
やや曇 3000 ft
だいたい曇 5000 ft
体感気温(寒さ) 44 °F
露点温度 40 °F
湿度 82%
降水 0.20 インチ
積雪深 利用不可。
4:34 AM 6:33 PM
三日月, 6% visible
METAR RJCC 281330Z 19018KT 9999 -SHRA FEW010 SCT030 BKN050 08/06 Q1004 RMK 1ST010 4CU030 5CU050 A2966

Get Severe Weather Alerts

Thanks for signing up!

Be on the lookout for a verification email in your inbox.

You'll start receiving the daily forecast at 8 AM.

×

10-Day Weather Forecast

No radar image for this location.
×

Almanac

天文

Apr. 28, 2017 入り
実時間
常用薄明
航海薄明
天文薄明
可視光の長さ
可照時間
Tomorrow will be .
, % of the Moon is Illuminated

今日の極値

Country Highs Country Lows

Community

WunderBlog® & News

Nearby

空気品質

  空気品質 大気質指数 汚染物質
Not available.

積雪深

Station Depth 高度

地震活動

Distance Mag. Time & Date
Minimum magnitude displayed is 2.5.

沿岸の水温

地名 気温

Stations

最寄りの気象観測所

観測所位置 温度 体感気温(寒さ) 露点温度 湿度 Precip. 高度 更新日時 タイプする